createdAt,value
2018-11-02T00:02:08.771Z,21.90
2018-11-02T00:04:37.305Z,21.80
2018-11-02T00:07:06.441Z,21.80
2018-11-02T00:09:34.885Z,21.80
2018-11-02T00:12:03.343Z,21.80
2018-11-02T00:14:31.866Z,21.80
2018-11-02T00:17:00.327Z,21.70
2018-11-02T00:19:30.933Z,21.70
2018-11-02T00:22:00.575Z,21.70
2018-11-02T00:24:35.964Z,21.60
2018-11-02T00:27:04.521Z,21.60
2018-11-02T00:29:33.560Z,21.60
2018-11-02T00:32:02.617Z,21.60
2018-11-02T00:34:31.384Z,21.60
2018-11-02T00:37:00.350Z,21.60
2018-11-02T00:39:29.443Z,21.50
2018-11-02T00:41:58.547Z,21.50
2018-11-02T00:44:27.420Z,21.50
2018-11-02T00:46:56.141Z,21.50
2018-11-02T00:49:24.882Z,21.50
2018-11-02T00:51:53.919Z,21.50
2018-11-02T00:54:22.653Z,21.50
2018-11-02T00:56:51.683Z,21.50
2018-11-02T00:59:20.343Z,21.40
2018-11-02T01:01:49.017Z,21.50
2018-11-02T01:04:17.540Z,21.50
2018-11-02T01:06:46.262Z,21.40
2018-11-02T01:09:14.911Z,21.40
2018-11-02T01:11:43.312Z,21.40
2018-11-02T01:14:11.945Z,21.40
2018-11-02T01:16:40.557Z,21.40
2018-11-02T01:19:09.010Z,21.40
2018-11-02T01:21:37.525Z,21.40
2018-11-02T01:24:06.240Z,21.40
2018-11-02T01:26:34.709Z,21.30
2018-11-02T01:29:03.437Z,21.30
2018-11-02T01:31:31.908Z,21.30
2018-11-02T01:34:00.441Z,21.30
2018-11-02T01:36:29.029Z,21.30
2018-11-02T01:38:57.587Z,21.30
2018-11-02T01:41:26.294Z,21.30
2018-11-02T01:43:55.168Z,21.20
2018-11-02T01:46:23.636Z,21.20
2018-11-02T01:48:52.182Z,21.20
2018-11-02T01:51:20.657Z,21.20
2018-11-02T01:53:49.146Z,21.20
2018-11-02T01:56:17.814Z,21.20
2018-11-02T01:58:46.310Z,21.20
2018-11-02T02:01:14.742Z,21.20
2018-11-02T02:03:43.360Z,21.20
2018-11-02T02:06:11.967Z,21.10
2018-11-02T02:08:40.510Z,21.10
2018-11-02T02:11:09.122Z,21.10
2018-11-02T02:13:37.719Z,21.10
2018-11-02T02:16:06.385Z,21.10
2018-11-02T02:18:34.848Z,21.00
2018-11-02T02:21:03.997Z,21.00
2018-11-02T02:23:32.539Z,21.00
2018-11-02T02:26:01.192Z,21.00
2018-11-02T02:28:29.886Z,21.00
2018-11-02T02:30:58.661Z,21.00
2018-11-02T02:33:27.124Z,21.00
2018-11-02T02:35:55.842Z,21.00
2018-11-02T02:38:24.305Z,21.00
2018-11-02T02:40:52.801Z,21.00
2018-11-02T02:43:21.489Z,21.00
2018-11-02T02:45:49.980Z,21.00
2018-11-02T02:48:18.468Z,21.00
2018-11-02T02:50:46.880Z,21.00
2018-11-02T02:53:16.158Z,21.00
2018-11-02T02:55:44.694Z,21.00
2018-11-02T02:58:13.409Z,21.00
2018-11-02T03:00:42.518Z,21.00
2018-11-02T03:03:11.157Z,21.00
2018-11-02T03:05:39.698Z,21.00
2018-11-02T03:08:08.330Z,21.00
2018-11-02T03:10:37.109Z,20.90
2018-11-02T03:13:05.730Z,20.90
2018-11-02T03:15:35.002Z,20.90
2018-11-02T03:18:04.438Z,20.90
2018-11-02T03:20:33.348Z,20.90
2018-11-02T03:23:02.053Z,20.80
2018-11-02T03:25:30.491Z,20.90
2018-11-02T03:27:58.979Z,20.80
2018-11-02T03:30:28.074Z,20.80
2018-11-02T03:32:56.537Z,20.80
2018-11-02T03:35:25.089Z,20.80
2018-11-02T03:37:53.972Z,20.80
2018-11-02T03:40:22.705Z,20.80
2018-11-02T03:42:51.177Z,20.80
2018-11-02T03:45:19.710Z,20.70
2018-11-02T03:47:48.239Z,20.70
2018-11-02T03:50:17.447Z,20.70
2018-11-02T03:52:45.886Z,20.80
2018-11-02T03:55:14.486Z,20.70
2018-11-02T03:57:44.096Z,20.80
2018-11-02T04:00:12.813Z,20.70
2018-11-02T04:02:41.612Z,20.70
2018-11-02T04:05:10.726Z,20.70
2018-11-02T04:07:39.414Z,20.70
2018-11-02T04:10:09.193Z,20.70
2018-11-02T04:12:38.060Z,20.70
2018-11-02T04:15:06.598Z,20.70
2018-11-02T04:17:35.103Z,20.70
2018-11-02T04:20:03.610Z,20.60
2018-11-02T04:22:32.194Z,20.70
2018-11-02T04:25:00.716Z,20.70
2018-11-02T04:27:29.405Z,20.60
2018-11-02T04:29:57.895Z,20.60
2018-11-02T04:32:26.474Z,20.60
2018-11-02T04:34:55.257Z,20.60
2018-11-02T04:37:23.816Z,20.60
2018-11-02T04:39:52.291Z,20.60
2018-11-02T04:42:20.792Z,20.60
2018-11-02T04:44:49.422Z,20.60
2018-11-02T04:47:18.036Z,20.60
2018-11-02T04:49:46.516Z,20.70
2018-11-02T04:52:15.165Z,20.60
2018-11-02T04:54:44.098Z,20.60
2018-11-02T04:57:12.750Z,20.60
2018-11-02T04:59:41.350Z,20.60
2018-11-02T05:02:09.845Z,20.60
2018-11-02T05:04:38.810Z,20.60
2018-11-02T05:07:07.517Z,20.60
2018-11-02T05:09:36.068Z,20.50
2018-11-02T05:12:04.896Z,20.50
2018-11-02T05:14:33.433Z,20.50
2018-11-02T05:17:01.921Z,20.50
2018-11-02T05:19:30.375Z,20.50
2018-11-02T05:21:58.886Z,20.50
2018-11-02T05:24:27.304Z,20.50
2018-11-02T05:26:55.735Z,20.50
2018-11-02T05:29:24.206Z,20.50
2018-11-02T05:31:52.864Z,20.50
2018-11-02T05:34:21.510Z,20.40
2018-11-02T05:36:50.106Z,20.40
2018-11-02T05:39:18.715Z,20.40
2018-11-02T05:41:47.466Z,20.40
2018-11-02T05:44:16.109Z,20.40
2018-11-02T05:46:44.656Z,20.40
2018-11-02T05:49:13.344Z,20.40
2018-11-02T05:51:42.886Z,20.40
2018-11-02T05:54:11.836Z,20.40
2018-11-02T05:56:40.308Z,20.40
2018-11-02T05:59:08.781Z,20.40
2018-11-02T06:01:37.403Z,20.40
2018-11-02T06:04:05.936Z,20.40
2018-11-02T06:06:34.839Z,20.50
2018-11-02T06:09:03.466Z,20.50
2018-11-02T06:11:32.085Z,20.50
2018-11-02T06:14:00.636Z,20.50
2018-11-02T06:16:29.197Z,20.50
2018-11-02T06:18:57.743Z,20.60
2018-11-02T06:21:26.320Z,20.60
2018-11-02T06:27:16.434Z,20.80
2018-11-02T06:29:45.428Z,20.90
2018-11-02T06:32:13.916Z,21.00
2018-11-02T06:34:42.761Z,21.10
2018-11-02T06:37:12.163Z,21.20
2018-11-02T06:39:43.655Z,21.40
2018-11-02T06:42:16.025Z,21.50
2018-11-02T06:44:45.879Z,21.60
2018-11-02T06:51:32.964Z,21.70
2018-11-02T06:54:01.438Z,21.80
2018-11-02T06:56:31.028Z,21.80
2018-11-02T06:59:01.922Z,21.80
2018-11-02T07:01:36.514Z,21.80
2018-11-02T07:04:15.726Z,21.70
2018-11-02T07:06:44.823Z,21.70
2018-11-02T07:09:16.718Z,21.60
2018-11-02T07:11:49.141Z,21.60
2018-11-02T07:14:21.102Z,21.50
2018-11-02T07:16:50.644Z,21.50
2018-11-02T07:19:19.684Z,21.50
2018-11-02T07:23:01.217Z,21.50
2018-11-02T07:45:38.878Z,21.30
2018-11-02T07:48:09.233Z,21.20
2018-11-02T07:50:38.975Z,21.20
2018-11-02T07:53:07.674Z,21.20
2018-11-02T07:55:36.421Z,21.20
2018-11-02T07:58:05.180Z,21.20
2018-11-02T08:00:33.860Z,21.20
2018-11-02T08:03:02.625Z,21.20
2018-11-02T08:05:32.311Z,21.20
2018-11-02T08:08:01.070Z,21.10
2018-11-02T08:10:31.700Z,21.00
2018-11-02T08:13:00.409Z,21.10
2018-11-02T08:15:30.171Z,21.20
2018-11-02T08:17:58.935Z,21.40
2018-11-02T08:20:27.734Z,21.60
2018-11-02T08:22:56.457Z,21.80
2018-11-02T08:25:25.431Z,21.90
2018-11-02T08:27:54.593Z,21.90
2018-11-02T08:30:23.293Z,22.00
2018-11-02T08:32:52.077Z,21.90
2018-11-02T08:35:20.890Z,21.80
2018-11-02T08:37:49.985Z,21.80
2018-11-02T08:40:18.831Z,21.70
2018-11-02T08:42:47.937Z,21.70
2018-11-02T08:45:16.825Z,21.60
2018-11-02T08:47:45.649Z,21.50
2018-11-02T08:50:14.503Z,21.50
2018-11-02T08:52:43.729Z,21.50
2018-11-02T08:55:12.609Z,21.40
2018-11-02T08:57:41.642Z,21.40
2018-11-02T09:00:12.021Z,21.40
2018-11-02T09:02:40.902Z,21.30
2018-11-02T09:05:09.985Z,21.30
2018-11-02T09:07:39.346Z,21.20
2018-11-02T09:10:10.112Z,21.10
2018-11-02T09:12:38.610Z,21.10
2018-11-02T09:15:07.423Z,21.00
2018-11-02T09:17:36.217Z,21.00
2018-11-02T09:20:05.897Z,20.90
2018-11-02T09:22:34.626Z,20.90
2018-11-02T09:25:03.146Z,20.90
2018-11-02T09:27:31.698Z,20.90
2018-11-02T09:30:00.238Z,20.90
2018-11-02T09:32:28.735Z,20.90
2018-11-02T09:34:57.445Z,21.00
2018-11-02T09:37:26.211Z,21.10
2018-11-02T09:39:54.757Z,21.10
2018-11-02T09:42:23.391Z,21.20
2018-11-02T09:44:51.899Z,21.20
2018-11-02T09:47:20.466Z,21.10
2018-11-02T09:49:49.233Z,21.10
2018-11-02T09:52:17.721Z,21.10
2018-11-02T09:54:46.221Z,21.10
2018-11-02T09:57:14.855Z,21.10
2018-11-02T09:59:43.736Z,21.10
2018-11-02T10:02:12.392Z,21.10
2018-11-02T10:04:40.831Z,21.10
2018-11-02T10:07:09.518Z,21.10
2018-11-02T10:09:38.052Z,21.10
2018-11-02T10:12:06.738Z,21.00
2018-11-02T10:14:35.231Z,21.00
2018-11-02T10:17:04.600Z,21.00
2018-11-02T10:19:33.274Z,21.00
2018-11-02T10:22:01.974Z,21.00
2018-11-02T10:24:30.543Z,21.00
2018-11-02T10:26:58.963Z,21.00
2018-11-02T10:29:27.598Z,21.00
2018-11-02T10:31:56.154Z,21.00
2018-11-02T10:34:24.674Z,21.00
2018-11-02T10:36:53.351Z,20.20
2018-11-02T10:39:21.949Z,21.00
2018-11-02T10:41:52.481Z,21.00
2018-11-02T10:44:27.953Z,21.00
2018-11-02T10:46:56.431Z,21.00
2018-11-02T10:49:25.233Z,21.00
2018-11-02T10:51:53.744Z,21.00
2018-11-02T10:54:22.457Z,21.00
2018-11-02T10:56:51.194Z,21.00
2018-11-02T10:59:19.805Z,21.00
2018-11-02T11:01:50.321Z,21.00
2018-11-02T11:04:19.121Z,21.00
2018-11-02T11:06:48.006Z,21.00
2018-11-02T11:09:16.727Z,21.00
2018-11-02T11:11:45.491Z,21.00
2018-11-02T11:14:13.916Z,21.10
2018-11-02T11:16:42.606Z,21.00
2018-11-02T11:19:11.432Z,21.10
2018-11-02T11:21:41.048Z,21.10
2018-11-02T11:24:09.570Z,21.00
2018-11-02T11:26:38.772Z,21.10
2018-11-02T11:29:07.569Z,21.10
2018-11-02T11:31:36.549Z,21.10
2018-11-02T11:34:06.063Z,21.10
2018-11-02T11:36:35.469Z,21.00
2018-11-02T11:39:07.580Z,21.00
2018-11-02T11:41:36.101Z,21.10
2018-11-02T11:44:04.840Z,21.10
2018-11-02T11:46:33.919Z,21.10
2018-11-02T11:49:02.950Z,21.10
2018-11-02T11:51:31.432Z,21.00
2018-11-02T11:54:00.577Z,21.10
2018-11-02T11:56:29.072Z,21.10
2018-11-02T11:58:57.704Z,21.00
2018-11-02T12:01:26.357Z,21.00
2018-11-02T12:03:55.008Z,21.00
2018-11-02T12:06:23.723Z,21.00
2018-11-02T12:08:52.380Z,21.00
2018-11-02T12:11:21.250Z,21.00
2018-11-02T12:13:49.762Z,21.00
2018-11-02T12:16:18.325Z,21.00
2018-11-02T12:18:47.169Z,21.00
2018-11-02T12:21:15.902Z,21.00
2018-11-02T12:23:44.558Z,21.00
2018-11-02T12:26:14.724Z,21.00
2018-11-02T12:28:43.557Z,21.00
2018-11-02T12:31:14.495Z,21.00
2018-11-02T12:33:43.537Z,20.90
2018-11-02T12:36:12.089Z,21.00
2018-11-02T12:38:41.210Z,21.00
2018-11-02T12:41:10.929Z,21.00
2018-11-02T12:43:39.825Z,21.00
2018-11-02T12:46:08.806Z,21.00
2018-11-02T12:48:37.594Z,21.00
2018-11-02T12:51:06.207Z,21.00
2018-11-02T12:53:34.943Z,21.00
2018-11-02T12:56:03.519Z,21.00
2018-11-02T12:58:32.190Z,21.00
2018-11-02T13:01:00.834Z,21.00
2018-11-02T13:03:29.887Z,21.00
2018-11-02T13:05:58.850Z,21.00
2018-11-02T13:08:27.460Z,21.00
2018-11-02T13:10:56.022Z,20.90
2018-11-02T13:13:24.507Z,20.90
2018-11-02T13:15:54.560Z,20.90
2018-11-02T13:18:23.164Z,20.90
2018-11-02T13:20:51.825Z,20.90
2018-11-02T13:23:21.113Z,20.90
2018-11-02T13:25:49.711Z,21.00
2018-11-02T13:28:18.323Z,21.00
2018-11-02T13:30:47.174Z,21.00
2018-11-02T13:33:15.894Z,21.00
2018-11-02T13:35:44.733Z,21.00
2018-11-02T13:38:13.260Z,21.90
2018-11-02T13:40:42.770Z,20.90
2018-11-02T13:43:11.699Z,20.90
2018-11-02T13:45:40.104Z,20.90
2018-11-02T13:48:08.564Z,20.90
2018-11-02T13:50:37.210Z,20.90
2018-11-02T13:53:06.556Z,20.90
2018-11-02T13:55:35.158Z,20.90
2018-11-02T13:58:03.930Z,20.90
2018-11-02T14:00:32.509Z,20.90
2018-11-02T14:03:01.207Z,20.90
2018-11-02T14:05:29.828Z,20.90
2018-11-02T14:07:58.294Z,20.90
2018-11-02T14:10:26.952Z,21.00
2018-11-02T14:12:55.576Z,20.90
2018-11-02T14:15:24.105Z,20.90
2018-11-02T14:17:52.716Z,21.00
2018-11-02T14:20:21.392Z,21.00
2018-11-02T14:22:49.984Z,21.00
2018-11-02T14:25:18.734Z,21.00
2018-11-02T14:27:47.498Z,21.00
2018-11-02T14:30:17.385Z,21.00
2018-11-02T14:32:46.785Z,21.00
2018-11-02T14:35:15.874Z,21.00
2018-11-02T14:37:44.407Z,21.00
2018-11-02T14:40:13.035Z,21.00
2018-11-02T14:42:41.911Z,21.00
2018-11-02T14:45:12.935Z,21.00
2018-11-02T14:47:41.498Z,21.00
2018-11-02T14:50:10.729Z,21.00
2018-11-02T14:52:39.434Z,21.00
2018-11-02T14:55:08.415Z,21.00
2018-11-02T14:57:37.134Z,21.00
2018-11-02T15:00:07.075Z,21.00
2018-11-02T15:02:35.772Z,20.90
2018-11-02T15:05:04.363Z,20.90
2018-11-02T15:07:33.318Z,20.90
2018-11-02T15:12:42.953Z,20.90
2018-11-02T15:15:11.467Z,20.90
2018-11-02T15:17:40.729Z,20.90
2018-11-02T15:20:11.419Z,20.90
2018-11-02T15:22:39.990Z,20.90
2018-11-02T15:25:09.043Z,20.90
2018-11-02T15:27:37.617Z,20.40
2018-11-02T15:30:18.678Z,20.90
2018-11-02T15:32:50.199Z,20.90
2018-11-02T15:35:19.225Z,20.80
2018-11-02T15:37:48.034Z,20.80
2018-11-02T15:40:17.510Z,20.80
2018-11-02T15:42:46.358Z,20.80
2018-11-02T15:45:15.605Z,20.80
2018-11-02T15:47:44.736Z,20.80
2018-11-02T15:50:13.637Z,20.80
2018-11-02T15:52:42.367Z,20.70
2018-11-02T15:55:11.886Z,20.70
2018-11-02T15:57:40.486Z,20.70
2018-11-02T16:00:16.525Z,20.70
2018-11-02T16:02:46.350Z,20.70
2018-11-02T16:05:14.950Z,20.70
2018-11-02T16:07:43.646Z,20.70
2018-11-02T16:10:12.625Z,20.70
2018-11-02T16:12:47.784Z,20.70
2018-11-02T16:15:16.524Z,20.70
2018-11-02T16:17:45.098Z,20.70
2018-11-02T16:20:14.619Z,20.60
2018-11-02T16:22:44.128Z,20.60
2018-11-02T16:25:14.086Z,20.60
2018-11-02T16:27:43.879Z,20.70
2018-11-02T16:30:13.078Z,20.60
2018-11-02T16:32:41.538Z,20.60
2018-11-02T16:35:11.396Z,20.60
2018-11-02T16:37:40.023Z,20.70
2018-11-02T16:40:13.997Z,20.60
2018-11-02T16:42:43.142Z,20.60
2018-11-02T16:45:12.571Z,20.60
2018-11-02T16:47:41.629Z,20.60
2018-11-02T16:50:11.976Z,20.60
2018-11-02T16:52:40.662Z,20.60
2018-11-02T16:55:09.497Z,20.60
2018-11-02T16:57:38.309Z,20.50
2018-11-02T17:00:11.976Z,20.50
2018-11-02T17:02:40.684Z,20.50
2018-11-02T17:05:09.637Z,20.50
2018-11-02T17:07:38.203Z,20.50
2018-11-02T17:10:07.861Z,20.50
2018-11-02T17:12:36.401Z,20.50
2018-11-02T17:15:04.985Z,20.50
2018-11-02T17:17:33.553Z,20.50
2018-11-02T17:20:02.248Z,20.40
2018-11-02T17:22:31.902Z,20.40
2018-11-02T17:25:00.423Z,20.40
2018-11-02T17:27:28.986Z,20.40
2018-11-02T17:29:58.027Z,20.40
2018-11-02T17:32:26.668Z,20.40
2018-11-02T17:34:55.356Z,20.40
2018-11-02T17:37:24.048Z,20.40
2018-11-02T17:39:52.843Z,20.40
2018-11-02T17:42:21.493Z,20.40
2018-11-02T17:44:50.618Z,20.40
2018-11-02T17:47:19.155Z,20.30
2018-11-02T17:49:47.767Z,20.30
2018-11-02T17:52:16.286Z,20.40
2018-11-02T17:54:44.819Z,20.30
2018-11-02T17:57:13.606Z,20.30
2018-11-02T17:59:42.171Z,20.30
2018-11-02T18:02:10.657Z,20.30
2018-11-02T18:04:39.144Z,20.30
2018-11-02T18:07:07.843Z,20.30
2018-11-02T18:09:36.333Z,20.30
2018-11-02T18:25:30.205Z,20.30
2018-11-02T18:27:58.934Z,20.20
2018-11-02T18:30:27.911Z,20.20
2018-11-02T18:32:56.620Z,20.20
2018-11-02T18:35:25.771Z,20.20
2018-11-02T18:37:54.504Z,20.20
2018-11-02T18:40:23.280Z,20.20
2018-11-02T18:42:51.971Z,20.20
2018-11-02T18:45:20.499Z,20.20
2018-11-02T18:47:50.267Z,20.20
2018-11-02T18:50:20.570Z,20.20
2018-11-02T18:52:49.784Z,20.20
2018-11-02T18:55:18.858Z,20.20
2018-11-02T18:57:47.676Z,20.20
2018-11-02T19:00:16.582Z,20.20
2018-11-02T19:02:45.521Z,20.20
2018-11-02T19:05:15.268Z,20.20
2018-11-02T19:07:44.212Z,20.20
2018-11-02T19:10:13.116Z,20.10
2018-11-02T19:12:42.587Z,20.10
2018-11-02T19:15:13.021Z,20.10
2018-11-02T19:17:41.949Z,20.10
2018-11-02T19:20:11.301Z,20.10
2018-11-02T19:22:39.909Z,20.10
2018-11-02T19:25:10.010Z,20.10
2018-11-02T19:27:38.908Z,20.10
2018-11-02T19:30:08.909Z,20.10
2018-11-02T19:32:38.113Z,20.10
2018-11-02T19:35:08.603Z,20.10
2018-11-02T19:37:38.065Z,20.00
2018-11-02T19:40:08.707Z,20.00
2018-11-02T19:42:37.325Z,20.00
2018-11-02T19:45:06.162Z,20.00
2018-11-02T19:47:40.034Z,20.00
2018-11-02T19:50:10.261Z,20.00
2018-11-02T19:52:38.926Z,20.00
2018-11-02T19:55:08.431Z,20.00
2018-11-02T19:57:37.042Z,20.00
2018-11-02T20:00:07.237Z,19.90
2018-11-02T20:02:35.736Z,20.00
2018-11-02T20:05:11.194Z,19.90
2018-11-02T20:07:40.207Z,19.90
2018-11-02T20:10:09.393Z,19.90
2018-11-02T20:12:38.145Z,19.90
2018-11-02T20:15:07.874Z,19.90
2018-11-02T20:17:37.140Z,19.90
2018-11-02T20:20:07.247Z,19.90
2018-11-02T20:22:36.083Z,19.90
2018-11-02T20:25:04.954Z,19.90
2018-11-02T20:27:33.784Z,19.90
2018-11-02T20:30:02.364Z,19.90
2018-11-02T20:32:30.923Z,19.90
2018-11-02T20:34:59.348Z,19.90
2018-11-02T20:37:28.424Z,19.90
2018-11-02T20:39:58.006Z,19.90
2018-11-02T20:42:26.816Z,19.90
2018-11-02T20:44:55.852Z,19.90
2018-11-02T20:47:24.659Z,19.90
2018-11-02T20:49:54.866Z,19.90
2018-11-02T20:52:23.945Z,19.80
2018-11-02T20:54:53.025Z,19.80
2018-11-02T20:57:21.653Z,19.80
2018-11-02T20:59:50.566Z,19.80
2018-11-02T21:02:19.077Z,19.80
2018-11-02T21:04:48.009Z,19.80
2018-11-02T21:07:16.810Z,19.80
2018-11-02T21:09:45.555Z,19.80
2018-11-02T21:12:14.000Z,19.80
2018-11-02T21:14:42.747Z,19.80
2018-11-02T21:17:11.803Z,19.80
2018-11-02T21:19:40.504Z,19.80
2018-11-02T21:22:11.356Z,19.70
2018-11-02T21:24:40.184Z,19.70
2018-11-02T21:27:09.933Z,19.70
2018-11-02T21:29:39.565Z,19.70
2018-11-02T21:32:08.151Z,19.70
2018-11-02T21:34:37.063Z,19.70
2018-11-02T21:37:05.953Z,19.70
2018-11-02T21:39:34.758Z,19.70
2018-11-02T21:42:04.343Z,19.70
2018-11-02T21:44:32.991Z,19.70
2018-11-02T21:47:01.577Z,19.70
2018-11-02T21:49:30.150Z,19.70
2018-11-02T21:51:59.270Z,19.60
2018-11-02T21:54:28.028Z,19.60
2018-11-02T21:56:56.903Z,19.60
2018-11-02T21:59:25.666Z,19.60
2018-11-02T22:01:54.308Z,19.60
2018-11-02T22:04:26.681Z,19.60
2018-11-02T22:06:55.285Z,19.60
2018-11-02T22:09:31.328Z,19.60
2018-11-02T22:12:13.679Z,19.60
2018-11-02T22:14:43.424Z,19.60
2018-11-02T22:17:12.023Z,19.60
2018-11-02T22:19:40.735Z,19.60
2018-11-02T22:22:09.405Z,19.60
2018-11-02T22:24:37.996Z,19.50
2018-11-02T22:27:06.742Z,19.60
2018-11-02T22:29:35.189Z,19.60
2018-11-02T22:32:03.882Z,19.60
2018-11-02T22:34:32.640Z,19.50
2018-11-02T22:37:01.270Z,19.50
2018-11-02T22:39:30.078Z,19.60
2018-11-02T22:41:58.665Z,19.50
2018-11-02T22:44:27.390Z,19.50
2018-11-02T22:46:57.084Z,19.50
2018-11-02T22:49:45.212Z,19.50
2018-11-02T22:52:24.514Z,19.50
2018-11-02T22:54:53.778Z,19.50
2018-11-02T22:57:22.433Z,19.50
2018-11-02T22:59:51.011Z,19.40
2018-11-02T23:02:19.514Z,19.40
2018-11-02T23:04:48.011Z,19.40
2018-11-02T23:07:16.455Z,19.40
2018-11-02T23:09:46.460Z,19.40
2018-11-02T23:12:15.657Z,19.40
2018-11-02T23:14:45.055Z,19.40
2018-11-02T23:17:13.722Z,19.40
2018-11-02T23:19:42.589Z,19.40
2018-11-02T23:22:11.302Z,19.40
2018-11-02T23:24:40.199Z,19.40
2018-11-02T23:27:09.084Z,19.40
2018-11-02T23:29:37.723Z,19.40
2018-11-02T23:32:06.248Z,19.40
2018-11-02T23:34:35.207Z,19.30
2018-11-02T23:37:04.224Z,19.30
2018-11-02T23:39:33.103Z,19.30
2018-11-02T23:42:01.959Z,19.30
2018-11-02T23:44:30.652Z,19.30
2018-11-02T23:46:59.333Z,19.30
2018-11-02T23:49:27.862Z,19.30
2018-11-02T23:51:56.352Z,19.30
2018-11-02T23:54:25.038Z,19.30
2018-11-02T23:56:53.763Z,19.20
2018-11-02T23:59:22.230Z,19.20
